Time;durP1;ratioP1;P1;durP2;ratioP2;P2;SDS_P1;SDS_P2;PMS_P1;PMS_P2;Temp;Humidity;BMP_temperature;BMP_pressure;BME280_temperature;BME280_humidity;BME280_pressure;Samples;Min_cycle;Max_cycle;Signal;HPM_P1;HPM_P2
2022/06/20 00:01:49;;;;;;;3.00;1.98;;;;;;;;;;1778432;80;22116;-69
2022/06/20 00:04:16;;;;;;;3.05;2.20;;;;;;;;;;1780553;79;21059;-68
2022/06/20 00:06:43;;;;;;;2.85;2.25;;;;;;;;;;1780229;80;21048;-68
2022/06/20 00:09:10;;;;;;;4.05;2.08;;;;;;;;;;1785333;79;21510;-68
2022/06/20 00:11:42;;;;;;;4.55;2.47;;;;;;;;;;1785725;79;21059;-68
2022/06/20 00:14:10;;;;;;;3.47;2.25;;;;;;;;;;1774328;79;21520;-69
2022/06/20 00:16:36;;;;;;;2.92;2.20;;;;;;;;;;1789430;80;21036;-69
2022/06/20 00:19:02;;;;;;;3.42;2.30;;;;;;;;;;1778127;79;21099;-69
2022/06/20 00:21:29;;;;;;;3.50;2.08;;;;;;;;;;1782852;79;21040;-69
2022/06/20 00:23:55;;;;;;;4.00;2.47;;;;;;;;;;1784192;80;20976;-69
2022/06/20 00:26:22;;;;;;;3.00;2.40;;;;;;;;;;1789787;80;21024;-69
2022/06/20 00:28:50;;;;;;;3.00;2.40;;;;;;;;;;1783945;80;21135;-69
2022/06/20 00:31:16;;;;;;;3.58;2.30;;;;;;;;;;1786332;79;21475;-69
2022/06/20 00:33:42;;;;;;;4.85;2.47;;;;;;;;;;1783766;79;21020;-69
2022/06/20 00:36:08;;;;;;;5.03;2.70;;;;;;;;;;1786365;79;21005;-69
2022/06/20 00:38:35;;;;;;;5.10;2.30;;;;;;;;;;1787937;79;22340;-69
2022/06/20 00:41:03;;;;;;;2.60;1.98;;;;;;;;;;1784905;79;21044;-69
2022/06/20 00:43:31;;;;;;;2.87;2.10;;;;;;;;;;1788529;79;21052;-69
2022/06/20 00:45:57;;;;;;;4.75;2.25;;;;;;;;;;1788806;79;21027;-69
2022/06/20 00:48:25;;;;;;;3.30;2.20;;;;;;;;;;1783238;80;21515;-69
2022/06/20 00:50:53;;;;;;;3.65;2.45;;;;;;;;;;1776830;80;21079;-69
2022/06/20 00:53:21;;;;;;;3.40;2.15;;;;;;;;;;1775652;79;21017;-69
2022/06/20 00:55:53;;;;;;;4.42;2.45;;;;;;;;;;1775123;79;21547;-68
2022/06/20 00:58:21;;;;;;;3.58;2.20;;;;;;;;;;1783790;80;22154;-68
2022/06/20 01:03:37;;;;;;;2.62;2.22;;;;;;;;;;1737293;79;73773;-68
2022/06/20 01:06:08;;;;;;;3.72;2.40;;;;;;;;;;1734478;82;21089;-69
2022/06/20 01:08:37;;;;;;;2.80;2.10;;;;;;;;;;1750856;82;20985;-68
2022/06/20 01:11:04;;;;;;;2.90;2.12;;;;;;;;;;1737396;82;21923;-69
2022/06/20 01:13:32;;;;;;;3.40;2.55;;;;;;;;;;1738402;81;21050;-69
2022/06/20 01:16:00;;;;;;;4.40;2.50;;;;;;;;;;1750521;82;21016;-69
2022/06/20 01:18:30;;;;;;;3.25;2.12;;;;;;;;;;1737505;82;21083;-69
2022/06/20 01:20:57;;;;;;;3.37;2.40;;;;;;;;;;1739694;82;21013;-69
2022/06/20 01:23:37;;;;;;;4.50;2.47;;;;;;;;;;1739119;82;22071;-68
2022/06/20 01:26:05;;;;;;;3.27;2.30;;;;;;;;;;1739622;82;21052;-67
2022/06/20 01:28:32;;;;;;;3.30;2.45;;;;;;;;;;1739659;82;21052;-68
2022/06/20 01:30:59;;;;;;;4.15;2.30;;;;;;;;;;1740152;82;20996;-68
2022/06/20 01:33:25;;;;;;;4.05;2.70;;;;;;;;;;1737228;82;21072;-68
2022/06/20 01:38:36;;;;;;;3.30;2.30;;;;;;;;;;1739737;82;21031;-67
2022/06/20 01:43:47;;;;;;;3.52;2.35;;;;;;;;;;1739613;82;21075;-67
2022/06/20 01:46:13;;;;;;;4.70;2.52;;;;;;;;;;1739849;82;21444;-68
2022/06/20 01:48:44;;;;;;;3.10;2.55;;;;;;;;;;1738600;82;21024;-68
2022/06/20 01:51:16;;;;;;;3.30;2.30;;;;;;;;;;1737161;82;21005;-67
2022/06/20 01:53:43;;;;;;;2.95;2.25;;;;;;;;;;1736792;82;22266;-67
2022/06/20 01:56:10;;;;;;;4.37;2.62;;;;;;;;;;1739783;82;21056;-68
2022/06/20 01:58:38;;;;;;;3.17;2.55;;;;;;;;;;1739002;82;21040;-68
2022/06/20 02:01:04;;;;;;;4.22;2.60;;;;;;;;;;1739658;82;21024;-68
2022/06/20 02:03:33;;;;;;;3.42;2.40;;;;;;;;;;1736384;81;21057;-68
2022/06/20 02:05:59;;;;;;;3.08;2.45;;;;;;;;;;1724120;82;21041;-68
2022/06/20 02:08:25;;;;;;;2.50;2.10;;;;;;;;;;1731033;83;21065;-68
2022/06/20 02:10:56;;;;;;;4.20;2.50;;;;;;;;;;1731224;82;21049;-68
2022/06/20 02:13:23;;;;;;;5.25;2.45;;;;;;;;;;1730845;82;21045;-68
2022/06/20 02:15:51;;;;;;;5.33;2.58;;;;;;;;;;1731166;82;21041;-68
2022/06/20 02:18:19;;;;;;;4.33;2.83;;;;;;;;;;1727603;83;21069;-68
2022/06/20 02:20:48;;;;;;;3.10;2.30;;;;;;;;;;1727529;82;22134;-68
2022/06/20 02:23:15;;;;;;;3.37;2.70;;;;;;;;;;1731324;83;21053;-68
2022/06/20 02:25:42;;;;;;;4.55;2.42;;;;;;;;;;1728609;82;21037;-68
2022/06/20 02:28:10;;;;;;;4.20;2.40;;;;;;;;;;1724101;82;21045;-68
2022/06/20 02:30:36;;;;;;;3.60;2.40;;;;;;;;;;1731439;82;21348;-68
2022/06/20 02:33:04;;;;;;;5.00;2.60;;;;;;;;;;1705280;83;21026;-68
2022/06/20 02:35:31;;;;;;;5.92;2.90;;;;;;;;;;1716076;83;21107;-69
2022/06/20 02:37:56;;;;;;;4.33;2.50;;;;;;;;;;1730639;83;21077;-68
2022/06/20 02:40:23;;;;;;;4.67;2.80;;;;;;;;;;1717818;83;21664;-68
2022/06/20 02:42:57;;;;;;;3.95;2.95;;;;;;;;;;1717670;82;21600;-69
2022/06/20 02:45:23;;;;;;;4.92;2.80;;;;;;;;;;1730940;82;21073;-69
2022/06/20 02:47:50;;;;;;;4.08;2.60;;;;;;;;;;1730246;83;21093;-68
2022/06/20 02:50:17;;;;;;;4.37;2.60;;;;;;;;;;1718795;82;21025;-69
2022/06/20 02:52:46;;;;;;;4.20;2.98;;;;;;;;;;1731392;83;21214;-69
2022/06/20 02:55:13;;;;;;;4.60;2.87;;;;;;;;;;1725234;82;21081;-69
2022/06/20 02:57:42;;;;;;;4.65;2.72;;;;;;;;;;1713567;83;21094;-69
2022/06/20 03:00:10;;;;;;;5.30;2.83;;;;;;;;;;1731611;82;20962;-69
2022/06/20 03:02:37;;;;;;;3.92;2.80;;;;;;;;;;1731351;82;21110;-69
2022/06/20 03:05:04;;;;;;;4.75;2.95;;;;;;;;;;1727846;81;21105;-69
2022/06/20 03:07:31;;;;;;;6.83;3.35;;;;;;;;;;1731401;82;21532;-68
2022/06/20 03:10:02;;;;;;;4.60;3.60;;;;;;;;;;1729985;82;21085;-70
2022/06/20 03:12:28;;;;;;;4.60;3.35;;;;;;;;;;1726473;83;21067;-69
2022/06/20 03:14:56;;;;;;;6.92;3.47;;;;;;;;;;1712148;83;21006;-69
2022/06/20 03:17:23;;;;;;;7.45;3.62;;;;;;;;;;1730159;82;21060;-69
2022/06/20 03:19:51;;;;;;;6.05;3.77;;;;;;;;;;1731229;82;21018;-69
2022/06/20 03:22:19;;;;;;;7.05;4.12;;;;;;;;;;1730193;82;21112;-69
2022/06/20 03:24:45;;;;;;;5.65;3.52;;;;;;;;;;1729027;82;21049;-69
2022/06/20 03:27:13;;;;;;;5.92;3.67;;;;;;;;;;1730814;82;21029;-69
2022/06/20 03:29:40;;;;;;;6.00;3.62;;;;;;;;;;1730814;82;21033;-69
2022/06/20 03:32:06;;;;;;;4.40;3.10;;;;;;;;;;1731761;82;21033;-69
2022/06/20 03:34:33;;;;;;;4.28;2.95;;;;;;;;;;1724510;82;21046;-69
2022/06/20 03:37:02;;;;;;;3.92;3.30;;;;;;;;;;1701213;84;22219;-69
2022/06/20 03:39:27;;;;;;;5.20;3.37;;;;;;;;;;1723884;83;21599;-69
2022/06/20 03:41:53;;;;;;;5.22;3.55;;;;;;;;;;1731499;82;21021;-69
2022/06/20 03:44:22;;;;;;;3.70;2.90;;;;;;;;;;1726205;83;21787;-68
2022/06/20 03:46:53;;;;;;;6.40;3.17;;;;;;;;;;1725172;82;21081;-68
2022/06/20 03:49:27;;;;;;;4.22;2.98;;;;;;;;;;1732082;82;21045;-68
2022/06/20 03:52:05;;;;;;;4.35;2.85;;;;;;;;;;1729799;82;21069;-68
2022/06/20 03:54:45;;;;;;;5.95;3.40;;;;;;;;;;1731317;82;21485;-68
2022/06/20 03:57:14;;;;;;;5.50;3.90;;;;;;;;;;1730915;82;21619;-68
2022/06/20 03:59:44;;;;;;;4.37;3.08;;;;;;;;;;1731155;82;21013;-68
2022/06/20 04:02:29;;;;;;;4.00;2.90;;;;;;;;;;1716142;82;21053;-68
2022/06/20 04:04:57;;;;;;;4.47;2.80;;;;;;;;;;1717467;82;21649;-68
2022/06/20 04:07:30;;;;;;;6.37;2.70;;;;;;;;;;1745004;82;20990;-67
2022/06/20 04:12:55;;;;;;;4.58;2.60;;;;;;;;;;1697936;82;21075;-66
2022/06/20 04:15:23;;;;;;;3.40;2.80;;;;;;;;;;1709244;82;21112;-67
2022/06/20 04:20:51;;;;;;;14.98;4.40;;;;;;;;;;1717251;82;21049;-69
2022/06/20 04:23:18;;;;;;;6.67;3.08;;;;;;;;;;1721655;82;21056;-69
2022/06/20 04:25:47;;;;;;;4.30;2.85;;;;;;;;;;1716481;83;21619;-69
2022/06/20 04:28:18;;;;;;;4.12;3.10;;;;;;;;;;1711433;83;21052;-69
2022/06/20 04:30:55;;;;;;;5.40;2.95;;;;;;;;;;1711486;83;21041;-68
2022/06/20 04:33:29;;;;;;;4.58;2.75;;;;;;;;;;1687264;83;21068;-67
2022/06/20 04:36:00;;;;;;;7.45;3.00;;;;;;;;;;1684162;82;21301;-67
2022/06/20 04:38:30;;;;;;;4.45;2.70;;;;;;;;;;1728269;82;21060;-67
2022/06/20 04:40:59;;;;;;;3.90;2.70;;;;;;;;;;1727529;82;21067;-67
2022/06/20 04:43:27;;;;;;;3.58;2.40;;;;;;;;;;1717545;83;21052;-67
2022/06/20 04:46:11;;;;;;;3.50;2.85;;;;;;;;;;1735907;82;21099;-68
2022/06/20 04:48:37;;;;;;;4.08;2.55;;;;;;;;;;1714130;82;21139;-69
2022/06/20 04:51:08;;;;;;;3.85;2.30;;;;;;;;;;1730095;82;21072;-68
2022/06/20 04:53:37;;;;;;;4.60;2.52;;;;;;;;;;1715455;82;22154;-69
2022/06/20 04:56:04;;;;;;;8.58;3.27;;;;;;;;;;1745237;82;21543;-69
2022/06/20 04:58:34;;;;;;;5.45;2.55;;;;;;;;;;1727381;82;21056;-69
2022/06/20 05:01:00;;;;;;;4.97;2.62;;;;;;;;;;1726516;82;21026;-68
2022/06/20 05:03:27;;;;;;;3.58;2.37;;;;;;;;;;1721083;82;21106;-69
2022/06/20 05:05:54;;;;;;;4.78;2.60;;;;;;;;;;1686351;83;21104;-69
2022/06/20 05:08:23;;;;;;;3.40;2.58;;;;;;;;;;1719866;83;21001;-69
2022/06/20 05:10:50;;;;;;;5.85;4.45;;;;;;;;;;1698045;83;21252;-68
2022/06/20 05:13:21;;;;;;;5.53;3.70;;;;;;;;;;1689100;84;21080;-69
2022/06/20 05:15:48;;;;;;;3.77;2.87;;;;;;;;;;1668231;86;21526;-69
2022/06/20 05:18:23;;;;;;;5.12;2.77;;;;;;;;;;1649658;85;21094;-69
2022/06/20 05:20:52;;;;;;;6.72;2.58;;;;;;;;;;1687282;84;21072;-69
2022/06/20 05:23:20;;;;;;;4.22;2.70;;;;;;;;;;1699221;84;21031;-70
2022/06/20 05:25:46;;;;;;;5.33;2.50;;;;;;;;;;1685877;84;21070;-70
2022/06/20 05:28:14;;;;;;;3.87;2.55;;;;;;;;;;1680087;84;21064;-70
2022/06/20 05:30:41;;;;;;;4.75;2.50;;;;;;;;;;1685854;84;21085;-69
2022/06/20 05:33:22;;;;;;;3.90;2.62;;;;;;;;;;1678242;84;21124;-69
2022/06/20 05:35:53;;;;;;;4.37;3.02;;;;;;;;;;1677678;84;21050;-70
2022/06/20 05:38:24;;;;;;;3.90;2.72;;;;;;;;;;1679621;84;21065;-70
2022/06/20 05:40:52;;;;;;;6.75;2.80;;;;;;;;;;1679671;84;21054;-70
2022/06/20 05:43:21;;;;;;;6.25;3.12;;;;;;;;;;1678291;84;21505;-69
2022/06/20 05:45:49;;;;;;;5.72;2.75;;;;;;;;;;1689310;84;21079;-69
2022/06/20 05:48:15;;;;;;;5.05;2.98;;;;;;;;;;1676539;84;21517;-69
2022/06/20 05:50:45;;;;;;;4.78;3.08;;;;;;;;;;1694191;84;21125;-69
2022/06/20 05:53:13;;;;;;;5.45;3.20;;;;;;;;;;1694056;84;21052;-69
2022/06/20 05:55:42;;;;;;;4.12;2.83;;;;;;;;;;1696328;84;22093;-69
2022/06/20 05:58:10;;;;;;;4.65;3.33;;;;;;;;;;1671817;84;21564;-69
2022/06/20 06:00:36;;;;;;;4.22;3.05;;;;;;;;;;1698375;84;21250;-69
2022/06/20 06:03:04;;;;;;;3.83;3.00;;;;;;;;;;1698703;83;20997;-69
2022/06/20 06:05:46;;;;;;;4.45;2.80;;;;;;;;;;1697434;84;21037;-70
2022/06/20 06:08:14;;;;;;;6.47;3.47;;;;;;;;;;1709483;84;21087;-69
2022/06/20 06:10:49;;;;;;;4.15;3.00;;;;;;;;;;1707969;83;21235;-68
2022/06/20 06:13:20;;;;;;;6.87;3.77;;;;;;;;;;1692504;84;21104;-68
2022/06/20 06:18:48;;;;;;;6.40;3.80;;;;;;;;;;1709510;83;21006;-70
2022/06/20 06:21:14;;;;;;;14.28;4.08;;;;;;;;;;1707944;83;20997;-68
2022/06/20 06:23:40;;;;;;;7.30;3.92;;;;;;;;;;1709358;83;21018;-69
2022/06/20 06:26:09;;;;;;;7.08;3.50;;;;;;;;;;1708362;83;21050;-68
2022/06/20 06:28:35;;;;;;;7.37;3.50;;;;;;;;;;1698190;83;21032;-68
2022/06/20 06:31:03;;;;;;;5.50;3.70;;;;;;;;;;1709520;84;21028;-69
2022/06/20 06:33:34;;;;;;;7.33;3.60;;;;;;;;;;1708851;83;21103;-69
2022/06/20 06:36:02;;;;;;;5.00;3.12;;;;;;;;;;1709408;83;21025;-69
2022/06/20 06:38:32;;;;;;;8.18;3.85;;;;;;;;;;1705570;83;21119;-69
2022/06/20 06:40:59;;;;;;;7.20;3.42;;;;;;;;;;1707743;83;21040;-69
2022/06/20 06:43:37;;;;;;;6.45;3.60;;;;;;;;;;1709658;83;21049;-68
2022/06/20 06:46:05;;;;;;;5.20;3.30;;;;;;;;;;1707701;83;21095;-69
2022/06/20 06:48:33;;;;;;;5.75;3.00;;;;;;;;;;1709043;84;21134;-70
2022/06/20 06:51:16;;;;;;;5.12;3.20;;;;;;;;;;1709267;82;21098;-69
2022/06/20 06:53:44;;;;;;;7.15;3.00;;;;;;;;;;1677815;84;21602;-69
2022/06/20 06:56:15;;;;;;;6.45;2.85;;;;;;;;;;1690097;84;21100;-69
2022/06/20 06:58:43;;;;;;;4.30;3.30;;;;;;;;;;1692754;84;21407;-69
2022/06/20 07:01:14;;;;;;;4.15;2.60;;;;;;;;;;1710619;83;21520;-70
2022/06/20 07:03:42;;;;;;;6.60;3.62;;;;;;;;;;1722026;83;21602;-70
2022/06/20 07:06:13;;;;;;;4.40;2.83;;;;;;;;;;1697830;83;21058;-68
2022/06/20 07:08:41;;;;;;;3.00;2.17;;;;;;;;;;1729592;82;21509;-68
2022/06/20 07:11:18;;;;;;;4.42;2.45;;;;;;;;;;1724089;82;21676;-68
2022/06/20 07:13:45;;;;;;;5.85;2.45;;;;;;;;;;1737058;82;21552;-68
2022/06/20 07:16:22;;;;;;;3.42;2.10;;;;;;;;;;1718964;81;21069;-67
2022/06/20 07:18:54;;;;;;;7.33;2.20;;;;;;;;;;1736714;82;21029;-67
2022/06/20 07:21:21;;;;;;;2.20;1.90;;;;;;;;;;1734769;82;21072;-66
2022/06/20 07:23:49;;;;;;;13.95;2.58;;;;;;;;;;1731993;82;21493;-67
2022/06/20 07:26:15;;;;;;;4.37;2.00;;;;;;;;;;1736379;82;21057;-66
2022/06/20 07:28:46;;;;;;;2.83;1.90;;;;;;;;;;1736673;82;21025;-67
2022/06/20 07:31:18;;;;;;;20.12;3.20;;;;;;;;;;1733144;82;21092;-66
2022/06/20 07:33:46;;;;;;;4.75;1.87;;;;;;;;;;1734989;82;21064;-67
2022/06/20 07:36:12;;;;;;;2.15;1.90;;;;;;;;;;1736697;82;21033;-68
2022/06/20 07:38:47;;;;;;;5.12;2.10;;;;;;;;;;1734640;82;20966;-68
2022/06/20 07:41:17;;;;;;;2.72;1.70;;;;;;;;;;1736801;82;21049;-69
2022/06/20 07:43:47;;;;;;;5.62;2.40;;;;;;;;;;1736270;82;21029;-69
2022/06/20 07:46:14;;;;;;;2.72;2.08;;;;;;;;;;1729308;82;21033;-69
2022/06/20 07:48:41;;;;;;;5.90;2.35;;;;;;;;;;1735368;82;21563;-68
2022/06/20 07:51:09;;;;;;;12.88;3.00;;;;;;;;;;1735628;82;21021;-68
2022/06/20 07:53:38;;;;;;;23.57;4.10;;;;;;;;;;1733589;82;21025;-68
2022/06/20 07:56:06;;;;;;;4.37;2.52;;;;;;;;;;1735613;81;21025;-68
2022/06/20 07:58:33;;;;;;;5.28;3.27;;;;;;;;;;1729542;82;21484;-68
2022/06/20 08:01:00;;;;;;;4.08;2.87;;;;;;;;;;1730064;82;21037;-71
2022/06/20 08:03:28;;;;;;;4.55;2.80;;;;;;;;;;1733718;81;21041;-69
2022/06/20 08:06:01;;;;;;;9.63;2.90;;;;;;;;;;1724283;82;21053;-69
2022/06/20 08:08:36;;;;;;;8.38;2.75;;;;;;;;;;1710711;82;21072;-67
2022/06/20 08:11:03;;;;;;;7.45;2.58;;;;;;;;;;1731104;83;21046;-68
2022/06/20 08:13:32;;;;;;;15.30;2.75;;;;;;;;;;1726018;83;21077;-69
2022/06/20 08:16:01;;;;;;;4.17;2.42;;;;;;;;;;1731281;82;21078;-68
2022/06/20 08:18:28;;;;;;;2.50;2.10;;;;;;;;;;1731314;82;21046;-69
2022/06/20 08:20:58;;;;;;;4.03;2.70;;;;;;;;;;1724460;83;21048;-69
2022/06/20 08:23:32;;;;;;;3.67;2.55;;;;;;;;;;1731290;83;21053;-68
2022/06/20 08:26:00;;;;;;;5.37;2.75;;;;;;;;;;1718871;81;21182;-68
2022/06/20 08:31:18;;;;;;;4.62;2.70;;;;;;;;;;1686339;85;21574;-66
2022/06/20 08:33:55;;;;;;;4.20;2.50;;;;;;;;;;1688340;85;21553;-66
2022/06/20 08:36:23;;;;;;;9.35;2.77;;;;;;;;;;1694738;85;21047;-66
2022/06/20 08:38:54;;;;;;;3.70;2.70;;;;;;;;;;1674595;85;21082;-66
2022/06/20 08:41:39;;;;;;;6.40;2.70;;;;;;;;;;1667592;85;21558;-66
2022/06/20 08:44:08;;;;;;;6.60;2.50;;;;;;;;;;1666033;85;21112;-66
2022/06/20 08:46:37;;;;;;;2.75;2.10;;;;;;;;;;1666422;85;21046;-66
2022/06/20 08:49:22;;;;;;;4.55;2.10;;;;;;;;;;1682076;83;22301;-66
2022/06/20 08:52:09;;;;;;;4.05;1.98;;;;;;;;;;1679527;85;21526;-67
2022/06/20 08:54:40;;;;;;;4.42;2.10;;;;;;;;;;1677089;85;21078;-66
2022/06/20 08:57:08;;;;;;;4.72;2.42;;;;;;;;;;1671480;85;21051;-66
2022/06/20 08:59:46;;;;;;;3.20;2.00;;;;;;;;;;1683211;84;21066;-66
2022/06/20 09:02:20;;;;;;;5.95;2.37;;;;;;;;;;1669882;85;21062;-66
2022/06/20 09:04:52;;;;;;;2.85;1.77;;;;;;;;;;1640501;87;21597;-67
2022/06/20 09:07:24;;;;;;;7.72;2.60;;;;;;;;;;1640815;86;21088;-66
2022/06/20 09:09:58;;;;;;;3.30;2.12;;;;;;;;;;1645294;86;21022;-67
2022/06/20 09:12:33;;;;;;;2.83;2.40;;;;;;;;;;1642866;86;21123;-66
2022/06/20 09:15:03;;;;;;;8.48;2.22;;;;;;;;;;1655023;86;21117;-67
2022/06/20 09:17:37;;;;;;;2.85;2.00;;;;;;;;;;1667672;86;21122;-67
2022/06/20 09:20:21;;;;;;;2.45;1.95;;;;;;;;;;1643201;86;21074;-67
2022/06/20 09:23:02;;;;;;;4.67;1.80;;;;;;;;;;1642283;86;21074;-67
2022/06/20 09:25:42;;;;;;;3.72;1.98;;;;;;;;;;1639025;87;21062;-67
2022/06/20 09:28:16;;;;;;;3.17;1.65;;;;;;;;;;1639132;87;21117;-67
2022/06/20 09:30:59;;;;;;;2.22;1.85;;;;;;;;;;1651200;85;21050;-67
2022/06/20 09:33:32;;;;;;;2.87;1.80;;;;;;;;;;1690803;83;21011;-66
2022/06/20 09:36:17;;;;;;;7.67;2.25;;;;;;;;;;1702995;83;21462;-68
2022/06/20 09:38:45;;;;;;;3.77;1.77;;;;;;;;;;1700570;83;21529;-66
2022/06/20 09:41:13;;;;;;;2.58;1.70;;;;;;;;;;1710570;83;22137;-66
2022/06/20 09:43:51;;;;;;;3.15;1.80;;;;;;;;;;1711390;81;21077;-66
2022/06/20 09:46:19;;;;;;;3.95;2.00;;;;;;;;;;1707919;83;21286;-67
2022/06/20 09:48:47;;;;;;;2.37;1.77;;;;;;;;;;1709562;83;21073;-66
2022/06/20 09:51:30;;;;;;;2.52;1.90;;;;;;;;;;1721605;83;21031;-66
2022/06/20 09:53:59;;;;;;;1.95;1.60;;;;;;;;;;1708049;83;21494;-66
2022/06/20 09:56:27;;;;;;;3.72;1.70;;;;;;;;;;1708103;83;21493;-67
2022/06/20 09:59:09;;;;;;;2.98;1.95;;;;;;;;;;1712981;83;21561;-67
2022/06/20 10:01:54;;;;;;;3.92;1.92;;;;;;;;;;1671161;85;21556;-66
2022/06/20 10:04:22;;;;;;;4.42;2.00;;;;;;;;;;1669448;85;21076;-66
2022/06/20 10:06:50;;;;;;;5.97;1.82;;;;;;;;;;1678557;84;21093;-67
2022/06/20 10:09:21;;;;;;;3.92;1.70;;;;;;;;;;1700899;83;21030;-67
2022/06/20 10:11:51;;;;;;;3.77;3.00;;;;;;;;;;1713440;83;21079;-66
2022/06/20 10:14:34;;;;;;;4.08;2.10;;;;;;;;;;1715478;83;20994;-66
2022/06/20 10:17:07;;;;;;;3.77;2.20;;;;;;;;;;1699922;83;21053;-66
2022/06/20 10:19:36;;;;;;;4.05;1.70;;;;;;;;;;1701523;83;21021;-66
2022/06/20 10:22:13;;;;;;;4.00;1.90;;;;;;;;;;1702733;83;21097;-67
2022/06/20 10:25:33;;;;;;;3.00;1.60;;;;;;;;;;1801951;79;22884;-68
2022/06/20 10:28:01;;;;;;;10.55;2.45;;;;;;;;;;1762237;80;21473;-68
2022/06/20 10:30:29;;;;;;;3.10;1.72;;;;;;;;;;1761540;81;20989;-68
2022/06/20 10:33:03;;;;;;;4.45;1.70;;;;;;;;;;1760396;81;21005;-68
2022/06/20 10:35:34;;;;;;;2.37;1.77;;;;;;;;;;1761562;81;21500;-68
2022/06/20 10:38:06;;;;;;;3.45;1.90;;;;;;;;;;1757555;80;21007;-68
2022/06/20 10:40:51;;;;;;;2.10;1.62;;;;;;;;;;1760015;80;21088;-67
2022/06/20 10:43:22;;;;;;;3.40;1.87;;;;;;;;;;1774777;80;21029;-65
2022/06/20 10:45:50;;;;;;;1.80;1.60;;;;;;;;;;1760758;80;21080;-65
2022/06/20 10:48:18;;;;;;;4.12;1.70;;;;;;;;;;1761409;81;21029;-66
2022/06/20 10:50:47;;;;;;;2.10;1.67;;;;;;;;;;1760676;81;21056;-66
2022/06/20 10:53:18;;;;;;;1.90;1.65;;;;;;;;;;1758086;81;21047;-66
2022/06/20 10:55:49;;;;;;;1.52;1.40;;;;;;;;;;1741633;80;21048;-67
2022/06/20 10:58:17;;;;;;;2.80;1.90;;;;;;;;;;1758406;81;21126;-67
2022/06/20 11:00:48;;;;;;;2.15;1.45;;;;;;;;;;1780462;80;21526;-66
2022/06/20 11:03:31;;;;;;;4.17;1.90;;;;;;;;;;1751596;80;21245;-66
2022/06/20 11:05:58;;;;;;;3.92;1.70;;;;;;;;;;1746305;82;21099;-66
2022/06/20 11:08:29;;;;;;;4.25;1.67;;;;;;;;;;1742629;82;21110;-66
2022/06/20 11:11:10;;;;;;;1.77;1.60;;;;;;;;;;1745146;82;21065;-66
2022/06/20 11:13:47;;;;;;;2.15;1.45;;;;;;;;;;1749606;82;21068;-65
2022/06/20 11:16:25;;;;;;;3.70;1.90;;;;;;;;;;1751490;82;21068;-66
2022/06/20 11:19:10;;;;;;;1.60;1.50;;;;;;;;;;1741244;82;21041;-66
2022/06/20 11:21:38;;;;;;;3.45;2.85;;;;;;;;;;1733214;82;21037;-66
2022/06/20 11:24:25;;;;;;;2.60;2.40;;;;;;;;;;1723939;82;21501;-65
2022/06/20 11:26:53;;;;;;;2.40;1.90;;;;;;;;;;1737674;82;21651;-65
2022/06/20 11:29:21;;;;;;;4.65;2.05;;;;;;;;;;1728917;82;21053;-66
2022/06/20 11:31:50;;;;;;;2.98;1.80;;;;;;;;;;1717603;82;21041;-65
2022/06/20 11:34:28;;;;;;;2.92;1.70;;;;;;;;;;1723728;82;21096;-66
2022/06/20 11:37:05;;;;;;;3.42;2.12;;;;;;;;;;1718687;82;21072;-66
2022/06/20 11:39:45;;;;;;;3.30;1.80;;;;;;;;;;1699841;82;21076;-66
2022/06/20 11:42:19;;;;;;;2.35;1.60;;;;;;;;;;1738094;82;21088;-66
2022/06/20 11:44:47;;;;;;;2.75;1.80;;;;;;;;;;1737801;82;20998;-65
2022/06/20 11:47:33;;;;;;;3.58;1.90;;;;;;;;;;1737432;82;21006;-65
2022/06/20 11:50:18;;;;;;;3.30;1.70;;;;;;;;;;1720060;82;21115;-66
2022/06/20 11:52:46;;;;;;;2.58;1.70;;;;;;;;;;1718017;82;21080;-66
2022/06/20 11:55:29;;;;;;;1.95;1.77;;;;;;;;;;1711451;82;21021;-66
2022/06/20 11:58:00;;;;;;;2.90;1.65;;;;;;;;;;1726061;82;21541;-66
2022/06/20 12:00:30;;;;;;;3.00;1.80;;;;;;;;;;1718852;82;21073;-66
2022/06/20 12:03:08;;;;;;;3.30;2.00;;;;;;;;;;1708907;82;21133;-66
2022/06/20 12:05:38;;;;;;;5.30;2.00;;;;;;;;;;1738527;81;21041;-64
2022/06/20 12:08:15;;;;;;;2.85;1.80;;;;;;;;;;1703264;82;21100;-65
2022/06/20 12:10:46;;;;;;;3.70;1.80;;;;;;;;;;1730006;82;21048;-64
2022/06/20 12:13:26;;;;;;;3.85;1.77;;;;;;;;;;1730034;82;21032;-66
2022/06/20 12:15:56;;;;;;;2.75;1.87;;;;;;;;;;1717605;82;21029;-65
2022/06/20 12:18:42;;;;;;;3.60;1.80;;;;;;;;;;1732211;82;21123;-65
2022/06/20 12:23:59;;;;;;;3.83;1.55;;;;;;;;;;1739233;81;21116;-65
2022/06/20 12:26:34;;;;;;;2.20;1.70;;;;;;;;;;1731706;82;20991;-65
2022/06/20 12:29:00;;;;;;;3.47;1.87;;;;;;;;;;1736904;82;20994;-65
2022/06/20 12:31:31;;;;;;;2.02;1.60;;;;;;;;;;1738554;82;21041;-66
2022/06/20 12:33:59;;;;;;;13.00;2.00;;;;;;;;;;1738733;82;21513;-65
2022/06/20 12:36:33;;;;;;;2.85;1.80;;;;;;;;;;1739406;82;21029;-65
2022/06/20 12:39:04;;;;;;;2.05;1.60;;;;;;;;;;1738524;82;21053;-65
2022/06/20 12:41:32;;;;;;;3.60;1.85;;;;;;;;;;1739203;82;21069;-66
2022/06/20 12:44:03;;;;;;;4.05;1.90;;;;;;;;;;1729445;82;21045;-66
2022/06/20 12:46:47;;;;;;;2.95;1.85;;;;;;;;;;1737394;82;21057;-66
2022/06/20 12:49:18;;;;;;;2.42;1.70;;;;;;;;;;1729261;82;21002;-66
2022/06/20 12:51:45;;;;;;;1.67;1.37;;;;;;;;;;1664187;86;21112;-67
2022/06/20 12:54:25;;;;;;;2.40;2.08;;;;;;;;;;1711275;81;21001;-67
2022/06/20 12:56:57;;;;;;;7.00;3.10;;;;;;;;;;1724605;82;21551;-67
2022/06/20 12:59:41;;;;;;;2.45;1.92;;;;;;;;;;1730227;82;21037;-66
2022/06/20 13:02:13;;;;;;;2.80;1.70;;;;;;;;;;1737847;82;21066;-66
2022/06/20 13:04:42;;;;;;;1.90;1.55;;;;;;;;;;1729698;82;21060;-66
2022/06/20 13:07:16;;;;;;;5.33;1.80;;;;;;;;;;1737830;82;21027;-67
2022/06/20 13:09:44;;;;;;;1.90;1.70;;;;;;;;;;1730476;82;21564;-67
2022/06/20 13:12:12;;;;;;;3.08;2.00;;;;;;;;;;1737934;82;21561;-66
2022/06/20 13:14:46;;;;;;;2.60;1.70;;;;;;;;;;1734025;82;21019;-66
2022/06/20 13:17:15;;;;;;;3.98;1.90;;;;;;;;;;1734124;82;21033;-67
2022/06/20 13:19:43;;;;;;;13.75;2.00;;;;;;;;;;1720743;82;21080;-66
2022/06/20 13:22:27;;;;;;;4.70;2.00;;;;;;;;;;1732578;81;21035;-66
2022/06/20 13:25:02;;;;;;;2.05;1.57;;;;;;;;;;1736769;80;21040;-65
2022/06/20 13:27:33;;;;;;;3.87;1.80;;;;;;;;;;1700321;84;21131;-67
2022/06/20 13:30:01;;;;;;;3.25;2.35;;;;;;;;;;1701353;84;21036;-67
2022/06/20 13:32:32;;;;;;;11.57;2.20;;;;;;;;;;1708041;84;21024;-66
2022/06/20 13:35:01;;;;;;;2.20;1.70;;;;;;;;;;1688450;84;21664;-67
2022/06/20 13:37:36;;;;;;;2.27;1.90;;;;;;;;;;1684729;85;21539;-66
2022/06/20 13:40:07;;;;;;;3.83;2.10;;;;;;;;;;1715056;84;21101;-67
2022/06/20 13:42:35;;;;;;;2.58;1.70;;;;;;;;;;1702052;84;21105;-67
2022/06/20 13:45:08;;;;;;;1.70;1.60;;;;;;;;;;1706846;84;21128;-68
2022/06/20 13:47:33;;;;;;;2.33;1.60;;;;;;;;;;1706399;84;21132;-65
2022/06/20 13:50:01;;;;;;;2.10;1.65;;;;;;;;;;1706862;84;21054;-67
2022/06/20 13:52:29;;;;;;;3.67;1.57;;;;;;;;;;1706927;84;21050;-67
2022/06/20 13:55:15;;;;;;;3.50;2.45;;;;;;;;;;1706963;84;21081;-67
2022/06/20 13:57:44;;;;;;;3.95;2.33;;;;;;;;;;1706304;84;21069;-66
2022/06/20 14:00:18;;;;;;;2.83;2.15;;;;;;;;;;1706997;84;21127;-66
2022/06/20 14:02:46;;;;;;;1.87;1.40;;;;;;;;;;1706739;84;21053;-67
2022/06/20 14:05:14;;;;;;;2.05;1.67;;;;;;;;;;1707042;84;21057;-67
2022/06/20 14:07:44;;;;;;;2.67;1.57;;;;;;;;;;1705849;84;21133;-67
2022/06/20 14:10:21;;;;;;;3.08;1.50;;;;;;;;;;1706999;84;21501;-66
2022/06/20 14:12:49;;;;;;;2.75;1.40;;;;;;;;;;1706658;84;21125;-66
2022/06/20 14:15:17;;;;;;;7.28;2.95;;;;;;;;;;1706891;84;21076;-66
2022/06/20 14:17:51;;;;;;;5.35;2.37;;;;;;;;;;1698545;84;21033;-67
2022/06/20 14:20:20;;;;;;;3.70;2.10;;;;;;;;;;1723609;83;21064;-67
2022/06/20 14:22:49;;;;;;;6.15;2.80;;;;;;;;;;1719798;83;21041;-66
2022/06/20 14:25:23;;;;;;;4.33;2.40;;;;;;;;;;1717412;83;21533;-67
2022/06/20 14:27:51;;;;;;;3.58;1.95;;;;;;;;;;1734923;82;21045;-67
2022/06/20 14:30:20;;;;;;;6.22;1.95;;;;;;;;;;1739628;82;21009;-67
2022/06/20 14:32:57;;;;;;;2.45;1.60;;;;;;;;;;1739303;82;21037;-66
2022/06/20 14:35:25;;;;;;;3.08;1.90;;;;;;;;;;1739422;82;21057;-67
2022/06/20 14:38:06;;;;;;;3.83;1.70;;;;;;;;;;1725766;82;21073;-67
2022/06/20 14:40:45;;;;;;;2.22;1.62;;;;;;;;;;1738763;82;21108;-67
2022/06/20 14:43:16;;;;;;;2.47;1.62;;;;;;;;;;1725767;82;21572;-66
2022/06/20 14:45:44;;;;;;;7.72;1.90;;;;;;;;;;1736728;82;21547;-67
2022/06/20 14:48:12;;;;;;;4.47;2.52;;;;;;;;;;1735639;82;21125;-66
2022/06/20 14:50:49;;;;;;;5.33;2.33;;;;;;;;;;1733409;82;21018;-67
2022/06/20 14:53:17;;;;;;;3.02;1.87;;;;;;;;;;1733420;82;21104;-66
2022/06/20 14:55:51;;;;;;;2.83;1.80;;;;;;;;;;1721253;82;21160;-66
2022/06/20 14:58:38;;;;;;;6.17;2.05;;;;;;;;;;1735840;82;21045;-66
2022/06/20 15:01:08;;;;;;;2.75;1.90;;;;;;;;;;1723347;82;21025;-65
2022/06/20 15:03:36;;;;;;;6.53;1.98;;;;;;;;;;1722538;82;21169;-66
2022/06/20 15:06:08;;;;;;;5.30;1.90;;;;;;;;;;1712521;82;21006;-66
2022/06/20 15:08:36;;;;;;;3.05;1.72;;;;;;;;;;1728413;82;21102;-66
2022/06/20 15:11:05;;;;;;;4.95;2.17;;;;;;;;;;1728715;82;21100;-69
2022/06/20 15:13:37;;;;;;;2.95;1.85;;;;;;;;;;1699855;82;21072;-67
2022/06/20 15:16:11;;;;;;;3.62;1.98;;;;;;;;;;1736958;82;21369;-67
2022/06/20 15:18:44;;;;;;;4.75;1.70;;;;;;;;;;1718130;82;21010;-67
2022/06/20 15:21:15;;;;;;;2.37;1.70;;;;;;;;;;1737644;82;21445;-67
2022/06/20 15:23:52;;;;;;;4.00;2.10;;;;;;;;;;1737476;82;21001;-67
2022/06/20 15:26:23;;;;;;;2.58;1.77;;;;;;;;;;1716409;82;21068;-69
2022/06/20 15:29:06;;;;;;;9.08;2.12;;;;;;;;;;1732612;82;22035;-68